sensor_id;sensor_type;location;lat;lon;timestamp;pressure;altitude;pressure_sealevel;temperature;humidity
6899;BME280;3488;42.616;23.350;2023-03-25T00:00:01;62896.75;;;8.71;85.61
6899;BME280;3488;42.616;23.350;2023-03-25T00:02:31;62892.66;;;8.70;85.82
6899;BME280;3488;42.616;23.350;2023-03-25T00:04:59;62893.66;;;8.68;85.98
6899;BME280;3488;42.616;23.350;2023-03-25T00:07:29;62898.22;;;8.68;86.40
6899;BME280;3488;42.616;23.350;2023-03-25T00:09:56;62887.50;;;8.65;86.81
6899;BME280;3488;42.616;23.350;2023-03-25T00:12:23;62890.56;;;8.65;86.73
6899;BME280;3488;42.616;23.350;2023-03-25T00:14:50;62891.56;;;8.66;86.98
6899;BME280;3488;42.616;23.350;2023-03-25T00:17:20;62894.69;;;8.69;86.97
6899;BME280;3488;42.616;23.350;2023-03-25T00:19:47;62887.97;;;8.63;87.44
6899;BME280;3488;42.616;23.350;2023-03-25T00:22:16;62889.03;;;8.66;87.78
6899;BME280;3488;42.616;23.350;2023-03-25T00:24:45;62891.06;;;8.66;87.54
6899;BME280;3488;42.616;23.350;2023-03-25T00:27:12;62892.56;;;8.65;87.84
6899;BME280;3488;42.616;23.350;2023-03-25T00:29:42;62886.94;;;8.62;88.21
6899;BME280;3488;42.616;23.350;2023-03-25T00:32:09;62885.38;;;8.60;88.38
6899;BME280;3488;42.616;23.350;2023-03-25T00:34:36;62885.34;;;8.58;88.73
6899;BME280;3488;42.616;23.350;2023-03-25T00:37:07;62886.91;;;8.59;88.74
6899;BME280;3488;42.616;23.350;2023-03-25T00:39:34;62885.34;;;8.58;88.58
6899;BME280;3488;42.616;23.350;2023-03-25T00:42:03;62890.00;;;8.62;88.50
6899;BME280;3488;42.616;23.350;2023-03-25T00:44:30;62873.53;;;8.51;88.94
6899;BME280;3488;42.616;23.350;2023-03-25T00:46:57;62873.53;;;8.51;89.80
6899;BME280;3488;42.616;23.350;2023-03-25T00:49:24;62874.53;;;8.50;89.83
6899;BME280;3488;42.616;23.350;2023-03-25T00:51:53;62877.59;;;8.50;90.03
6899;BME280;3488;42.616;23.350;2023-03-25T00:54:21;62869.91;;;8.45;90.77
6899;BME280;3488;42.616;23.350;2023-03-25T00:56:48;62865.25;;;8.41;91.18
6899;BME280;3488;42.616;23.350;2023-03-25T00:59:17;62857.53;;;8.36;92.00
6899;BME280;3488;42.616;23.350;2023-03-25T01:01:43;62868.84;;;8.44;91.73
6899;BME280;3488;42.616;23.350;2023-03-25T01:04:13;62869.91;;;8.45;91.79
6899;BME280;3488;42.616;23.350;2023-03-25T01:06:41;62873.53;;;8.51;91.96
6899;BME280;3488;42.616;23.350;2023-03-25T01:09:11;62875.09;;;8.53;92.27
6899;BME280;3488;42.616;23.350;2023-03-25T01:11:42;62880.66;;;8.51;92.24
6899;BME280;3488;42.616;23.350;2023-03-25T01:14:12;62866.28;;;8.42;93.16
6899;BME280;3488;42.616;23.350;2023-03-25T01:16:41;62865.81;;;8.44;92.67
6899;BME280;3488;42.616;23.350;2023-03-25T01:19:09;62867.75;;;8.38;92.90
6899;BME280;3488;42.616;23.350;2023-03-25T01:21:36;62850.88;;;8.32;93.57
6899;BME280;3488;42.616;23.350;2023-03-25T01:24:05;62858.59;;;8.37;93.57
6899;BME280;3488;42.616;23.350;2023-03-25T01:26:32;62859.50;;;8.33;93.86
6899;BME280;3488;42.616;23.350;2023-03-25T01:28:59;62856.50;;;8.35;93.84
6899;BME280;3488;42.616;23.350;2023-03-25T01:31:26;62864.66;;;8.35;94.03
6899;BME280;3488;42.616;23.350;2023-03-25T01:33:56;62859.03;;;8.35;94.06
6899;BME280;3488;42.616;23.350;2023-03-25T01:36:23;62869.31;;;8.42;93.93
6899;BME280;3488;42.616;23.350;2023-03-25T01:38:50;62861.13;;;8.37;93.77
6899;BME280;3488;42.616;23.350;2023-03-25T01:41:17;62852.38;;;8.31;94.40
6899;BME280;3488;42.616;23.350;2023-03-25T01:44:00;62848.25;;;8.27;95.06
6899;BME280;3488;42.616;23.350;2023-03-25T01:46:28;62846.19;;;8.25;95.40
6899;BME280;3488;42.616;23.350;2023-03-25T01:48:56;62849.22;;;8.25;95.30
6899;BME280;3488;42.616;23.350;2023-03-25T01:51:28;62842.47;;;8.16;96.09
6899;BME280;3488;42.616;23.350;2023-03-25T01:53:57;62844.00;;;8.17;96.56
6899;BME280;3488;42.616;23.350;2023-03-25T01:56:27;62835.25;;;8.11;96.88
6899;BME280;3488;42.616;23.350;2023-03-25T01:58:58;62833.16;;;8.07;97.59
6899;BME280;3488;42.616;23.350;2023-03-25T02:01:27;62834.25;;;8.10;98.02
6899;BME280;3488;42.616;23.350;2023-03-25T02:03:57;62830.63;;;8.07;98.48
6899;BME280;3488;42.616;23.350;2023-03-25T02:06:38;62825.47;;;8.02;98.82
6899;BME280;3488;42.616;23.350;2023-03-25T02:09:09;62826.03;;;8.05;99.20
6899;BME280;3488;42.616;23.350;2023-03-25T02:11:37;62824.94;;;8.01;99.30
6899;BME280;3488;42.616;23.350;2023-03-25T02:14:06;62825.47;;;8.02;99.31
6899;BME280;3488;42.616;23.350;2023-03-25T02:16:42;62816.81;;;8.01;99.22
6899;BME280;3488;42.616;23.350;2023-03-25T02:25:57;62817.81;;;7.99;100.00
6899;BME280;3488;42.616;23.350;2023-03-25T02:28:33;62818.28;;;7.97;100.00
6899;BME280;3488;42.616;23.350;2023-03-25T02:31:26;62811.09;;;7.93;100.00
6899;BME280;3488;42.616;23.350;2023-03-25T02:39:59;62808.00;;;7.90;100.00
6899;BME280;3488;42.616;23.350;2023-03-25T02:42:33;62803.34;;;7.85;100.00
6899;BME280;3488;42.616;23.350;2023-03-25T02:45:08;62808.94;;;7.86;100.00
6899;BME280;3488;42.616;23.350;2023-03-25T02:47:40;62811.47;;;7.86;100.00
6899;BME280;3488;42.616;23.350;2023-03-25T02:50:13;62804.28;;;7.81;100.00
6899;BME280;3488;42.616;23.350;2023-03-25T02:52:44;62804.81;;;7.82;100.00
6899;BME280;3488;42.616;23.350;2023-03-25T02:55:16;62795.56;;;7.75;100.00
6899;BME280;3488;42.616;23.350;2023-03-25T02:57:45;62794.53;;;7.74;100.00
6899;BME280;3488;42.616;23.350;2023-03-25T03:00:15;62791.91;;;7.69;100.00
6899;BME280;3488;42.616;23.350;2023-03-25T03:02:50;62790.84;;;7.66;100.00
6899;BME280;3488;42.616;23.350;2023-03-25T03:05:26;62788.25;;;7.63;100.00
6899;BME280;3488;42.616;23.350;2023-03-25T03:08:05;62781.63;;;7.62;100.00
6899;BME280;3488;42.616;23.350;2023-03-25T03:10:42;62784.22;;;7.64;100.00
6899;BME280;3488;42.616;23.350;2023-03-25T03:13:21;62776.00;;;7.59;100.00
6899;BME280;3488;42.616;23.350;2023-03-25T03:15:59;62771.31;;;7.52;100.00
6899;BME280;3488;42.616;23.350;2023-03-25T03:18:42;62775.38;;;7.53;100.00
6899;BME280;3488;42.616;23.350;2023-03-25T03:21:13;62770.25;;;7.51;100.00
6899;BME280;3488;42.616;23.350;2023-03-25T03:23:50;62773.84;;;7.52;100.00
6899;BME280;3488;42.616;23.350;2023-03-25T03:26:25;62769.19;;;7.47;100.00
6899;BME280;3488;42.616;23.350;2023-03-25T03:28:57;62765.09;;;7.46;100.00
6899;BME280;3488;42.616;23.350;2023-03-25T03:31:32;62759.94;;;7.41;100.00
6899;BME280;3488;42.616;23.350;2023-03-25T03:34:05;62757.41;;;7.41;100.00
6899;BME280;3488;42.616;23.350;2023-03-25T03:36:38;62764.03;;;7.42;100.00
6899;BME280;3488;42.616;23.350;2023-03-25T03:39:11;62755.84;;;7.37;100.00
6899;BME280;3488;42.616;23.350;2023-03-25T03:41:47;62756.34;;;7.37;100.00
6899;BME280;3488;42.616;23.350;2023-03-25T03:44:19;62759.84;;;7.36;100.00
6899;BME280;3488;42.616;23.350;2023-03-25T03:46:52;62752.72;;;7.34;100.00
6899;BME280;3488;42.616;23.350;2023-03-25T03:49:26;62746.59;;;7.30;100.00
6899;BME280;3488;42.616;23.350;2023-03-25T03:51:57;62746.03;;;7.27;100.00
6899;BME280;3488;42.616;23.350;2023-03-25T03:54:29;62750.09;;;7.29;100.00
6899;BME280;3488;42.616;23.350;2023-03-25T03:57:01;62750.56;;;7.27;100.00
6899;BME280;3488;42.616;23.350;2023-03-25T03:59:36;62750.56;;;7.27;100.00
6899;BME280;3488;42.616;23.350;2023-03-25T04:02:10;62746.59;;;7.30;100.00
6899;BME280;3488;42.616;23.350;2023-03-25T04:04:39;62754.69;;;7.31;100.00
6899;BME280;3488;42.616;23.350;2023-03-25T04:07:12;62749.59;;;7.28;100.00
6899;BME280;3488;42.616;23.350;2023-03-25T04:09:49;62752.63;;;7.29;100.00
6899;BME280;3488;42.616;23.350;2023-03-25T04:12:24;62742.47;;;7.26;100.00
6899;BME280;3488;42.616;23.350;2023-03-25T04:14:52;62749.13;;;7.30;100.00
6899;BME280;3488;42.616;23.350;2023-03-25T04:17:20;62756.75;;;7.33;100.00
6899;BME280;3488;42.616;23.350;2023-03-25T04:19:47;62751.19;;;7.32;100.00
6899;BME280;3488;42.616;23.350;2023-03-25T04:22:18;62758.84;;;7.35;100.00
6899;BME280;3488;42.616;23.350;2023-03-25T04:24:46;62760.41;;;7.39;100.00
6899;BME280;3488;42.616;23.350;2023-03-25T04:27:17;62758.94;;;7.40;100.00
6899;BME280;3488;42.616;23.350;2023-03-25T04:29:46;62766.16;;;7.47;100.00
6899;BME280;3488;42.616;23.350;2023-03-25T04:32:13;62771.25;;;7.49;100.00
6899;BME280;3488;42.616;23.350;2023-03-25T04:34:40;62775.34;;;7.51;100.00
6899;BME280;3488;42.616;23.350;2023-03-25T04:37:07;62774.84;;;7.50;100.00
6899;BME280;3488;42.616;23.350;2023-03-25T04:39:36;62778.94;;;7.54;100.00
6899;BME280;3488;42.616;23.350;2023-03-25T04:42:04;62772.28;;;7.50;100.00
6899;BME280;3488;42.616;23.350;2023-03-25T04:44:31;62770.78;;;7.51;100.00
6899;BME280;3488;42.616;23.350;2023-03-25T04:47:06;62773.88;;;7.54;100.00
6899;BME280;3488;42.616;23.350;2023-03-25T04:49:33;62777.50;;;7.58;100.00
6899;BME280;3488;42.616;23.350;2023-03-25T04:52:00;62786.75;;;7.64;100.00
6899;BME280;3488;42.616;23.350;2023-03-25T04:54:28;62787.84;;;7.68;100.00
6899;BME280;3488;42.616;23.350;2023-03-25T04:56:55;62794.00;;;7.74;100.00
6899;BME280;3488;42.616;23.350;2023-03-25T04:59:23;62801.75;;;7.81;100.00
6899;BME280;3488;42.616;23.350;2023-03-25T05:01:51;62815.16;;;7.92;100.00
6899;BME280;3488;42.616;23.350;2023-03-25T05:04:20;62827.00;;;8.03;100.00
6899;BME280;3488;42.616;23.350;2023-03-25T05:06:49;62836.34;;;8.15;100.00
6899;BME280;3488;42.616;23.350;2023-03-25T05:09:17;62856.41;;;8.30;100.00
6899;BME280;3488;42.616;23.350;2023-03-25T05:11:47;62865.81;;;8.44;100.00
6899;BME280;3488;42.616;23.350;2023-03-25T05:14:16;62877.72;;;8.58;100.00
6899;BME280;3488;42.616;23.350;2023-03-25T05:16:44;62897.78;;;8.72;100.00
6899;BME280;3488;42.616;23.350;2023-03-25T05:19:11;62914.31;;;8.88;100.00
6899;BME280;3488;42.616;23.350;2023-03-25T05:21:40;62928.28;;;9.02;99.62
6899;BME280;3488;42.616;23.350;2023-03-25T05:24:09;62941.25;;;9.17;99.58
6899;BME280;3488;42.616;23.350;2023-03-25T05:26:37;62960.28;;;9.30;99.70
6899;BME280;3488;42.616;23.350;2023-03-25T05:29:05;62966.50;;;9.39;97.22
6899;BME280;3488;42.616;23.350;2023-03-25T05:31:34;62985.66;;;9.58;95.51
6899;BME280;3488;42.616;23.350;2023-03-25T05:34:01;62998.56;;;9.70;91.94
6899;BME280;3488;42.616;23.350;2023-03-25T05:36:31;63012.03;;;9.83;89.64
6899;BME280;3488;42.616;23.350;2023-03-25T05:38:59;63027.00;;;9.98;88.07
6899;BME280;3488;42.616;23.350;2023-03-25T05:41:28;63042.03;;;10.12;87.00
6899;BME280;3488;42.616;23.350;2023-03-25T05:44:03;63061.66;;;10.29;84.68
6899;BME280;3488;42.616;23.350;2023-03-25T05:46:30;63080.78;;;10.47;82.84
6899;BME280;3488;42.616;23.350;2023-03-25T05:48:57;63084.00;;;10.56;80.74
6899;BME280;3488;42.616;23.350;2023-03-25T05:51:27;63099.38;;;10.63;80.13
6899;BME280;3488;42.616;23.350;2023-03-25T05:53:59;63098.00;;;10.72;77.29
6899;BME280;3488;42.616;23.350;2023-03-25T05:56:26;63104.13;;;10.73;75.42
6899;BME280;3488;42.616;23.350;2023-03-25T05:58:53;63093.75;;;10.60;76.16
6899;BME280;3488;42.616;23.350;2023-03-25T06:01:21;63090.72;;;10.62;76.32
6899;BME280;3488;42.616;23.350;2023-03-25T06:03:48;63091.19;;;10.60;76.81
6899;BME280;3488;42.616;23.350;2023-03-25T06:06:15;63100.00;;;10.69;75.79
6899;BME280;3488;42.616;23.350;2023-03-25T06:08:45;63114.97;;;10.81;76.95
6899;BME280;3488;42.616;23.350;2023-03-25T06:11:13;63132.16;;;11.05;76.27
6899;BME280;3488;42.616;23.350;2023-03-25T06:13:40;63160.63;;;11.30;72.91
6899;BME280;3488;42.616;23.350;2023-03-25T06:16:15;63174.59;;;11.43;73.01
6899;BME280;3488;42.616;23.350;2023-03-25T06:18:45;63187.50;;;11.53;70.47
6899;BME280;3488;42.616;23.350;2023-03-25T06:21:16;63195.28;;;11.61;70.46
6899;BME280;3488;42.616;23.350;2023-03-25T06:23:44;63205.69;;;11.74;69.84
6899;BME280;3488;42.616;23.350;2023-03-25T06:26:12;63199.00;;;11.70;70.81
6899;BME280;3488;42.616;23.350;2023-03-25T06:28:40;63216.00;;;11.81;69.82
6899;BME280;3488;42.616;23.350;2023-03-25T06:31:11;63223.78;;;11.89;68.38
6899;BME280;3488;42.616;23.350;2023-03-25T06:33:38;63220.72;;;11.88;68.94
6899;BME280;3488;42.616;23.350;2023-03-25T06:36:07;63234.16;;;11.99;68.98
6899;BME280;3488;42.616;23.350;2023-03-25T06:38:35;63246.03;;;12.08;68.60
6899;BME280;3488;42.616;23.350;2023-03-25T06:41:03;63247.13;;;12.14;67.81
6899;BME280;3488;42.616;23.350;2023-03-25T06:43:33;63254.34;;;12.18;67.30
6899;BME280;3488;42.616;23.350;2023-03-25T06:46:00;63270.91;;;12.32;67.04
6899;BME280;3488;42.616;23.350;2023-03-25T06:48:27;63281.81;;;12.45;65.01
6899;BME280;3488;42.616;23.350;2023-03-25T06:50:55;63294.78;;;12.57;64.45
6899;BME280;3488;42.616;23.350;2023-03-25T06:53:22;63303.06;;;12.65;64.17
6899;BME280;3488;42.616;23.350;2023-03-25T06:55:49;63291.75;;;12.59;63.91
6899;BME280;3488;42.616;23.350;2023-03-25T06:58:17;63303.06;;;12.65;64.59
6899;BME280;3488;42.616;23.350;2023-03-25T07:00:45;63304.06;;;12.64;64.43
6899;BME280;3488;42.616;23.350;2023-03-25T07:03:12;63300.03;;;12.67;64.17
6899;BME280;3488;42.616;23.350;2023-03-25T07:05:40;63293.31;;;12.61;65.46
6899;BME280;3488;42.616;23.350;2023-03-25T07:08:08;63304.59;;;12.64;64.98
6899;BME280;3488;42.616;23.350;2023-03-25T07:10:34;63313.44;;;12.75;64.33
6899;BME280;3488;42.616;23.350;2023-03-25T07:13:01;63331.06;;;12.93;64.36
6899;BME280;3488;42.616;23.350;2023-03-25T07:15:28;63346.13;;;13.07;63.75
6899;BME280;3488;42.616;23.350;2023-03-25T07:17:57;63329.00;;;12.91;62.74
6899;BME280;3488;42.616;23.350;2023-03-25T07:20:24;63337.31;;;12.99;61.55
6899;BME280;3488;42.616;23.350;2023-03-25T07:22:52;63337.88;;;13.02;62.51
6899;BME280;3488;42.616;23.350;2023-03-25T07:25:19;63355.41;;;13.11;62.02
6899;BME280;3488;42.616;23.350;2023-03-25T07:27:47;63342.97;;;13.02;61.85
6899;BME280;3488;42.616;23.350;2023-03-25T07:30:14;63349.25;;;13.10;62.02
6899;BME280;3488;42.616;23.350;2023-03-25T07:32:43;63360.13;;;13.21;61.22
6899;BME280;3488;42.616;23.350;2023-03-25T07:35:11;63375.16;;;13.33;61.96
6899;BME280;3488;42.616;23.350;2023-03-25T07:37:39;63410.94;;;13.67;59.98
6899;BME280;3488;42.616;23.350;2023-03-25T07:40:07;63431.75;;;13.90;59.18
6899;BME280;3488;42.616;23.350;2023-03-25T07:42:35;63441.56;;;13.97;58.71
6899;BME280;3488;42.616;23.350;2023-03-25T07:45:03;63466.94;;;14.17;58.21
6899;BME280;3488;42.616;23.350;2023-03-25T07:47:30;63466.50;;;14.24;57.03
6899;BME280;3488;42.616;23.350;2023-03-25T07:49:57;63481.59;;;14.38;57.09
6899;BME280;3488;42.616;23.350;2023-03-25T07:52:26;63491.97;;;14.48;55.66
6899;BME280;3488;42.616;23.350;2023-03-25T07:54:53;63500.84;;;14.59;56.01
6899;BME280;3488;42.616;23.350;2023-03-25T07:57:20;63510.75;;;14.71;55.33
6899;BME280;3488;42.616;23.350;2023-03-25T07:59:48;63526.75;;;14.79;55.20
6899;BME280;3488;42.616;23.350;2023-03-25T08:02:15;63528.34;;;14.83;55.03
6899;BME280;3488;42.616;23.350;2023-03-25T08:04:41;63555.78;;;15.02;55.66
6899;BME280;3488;42.616;23.350;2023-03-25T08:07:08;63545.00;;;15.02;55.54
6899;BME280;3488;42.616;23.350;2023-03-25T08:09:36;63552.22;;;15.06;55.84
6899;BME280;3488;42.616;23.350;2023-03-25T08:12:03;63569.94;;;15.26;55.43
6899;BME280;3488;42.616;23.350;2023-03-25T08:14:30;63565.75;;;15.20;53.64
6899;BME280;3488;42.616;23.350;2023-03-25T08:16:58;63567.34;;;15.24;54.67
6899;BME280;3488;42.616;23.350;2023-03-25T08:19:25;63606.81;;;15.59;53.20
6899;BME280;3488;42.616;23.350;2023-03-25T08:21:52;63626.09;;;15.80;52.57
6899;BME280;3488;42.616;23.350;2023-03-25T08:24:19;63659.88;;;16.13;52.52
6899;BME280;3488;42.616;23.350;2023-03-25T08:26:47;63695.78;;;16.48;51.95
6899;BME280;3488;42.616;23.350;2023-03-25T08:29:14;63720.72;;;16.69;52.28
6899;BME280;3488;42.616;23.350;2023-03-25T08:31:42;63714.50;;;16.66;50.85
6899;BME280;3488;42.616;23.350;2023-03-25T08:34:12;63729.00;;;16.75;51.41
6899;BME280;3488;42.616;23.350;2023-03-25T08:36:39;63713.44;;;16.62;52.23
6899;BME280;3488;42.616;23.350;2023-03-25T08:39:06;63712.84;;;16.57;51.99
6899;BME280;3488;42.616;23.350;2023-03-25T08:41:36;63718.09;;;16.64;52.37
6899;BME280;3488;42.616;23.350;2023-03-25T08:44:04;63745.19;;;16.95;51.84
6899;BME280;3488;42.616;23.350;2023-03-25T08:46:32;63769.09;;;17.13;51.26
6899;BME280;3488;42.616;23.350;2023-03-25T08:48:59;63782.59;;;17.26;51.76
6899;BME280;3488;42.616;23.350;2023-03-25T08:51:26;63796.72;;;17.45;50.14
6899;BME280;3488;42.616;23.350;2023-03-25T08:53:53;63809.22;;;17.55;48.97
6899;BME280;3488;42.616;23.350;2023-03-25T08:56:20;63810.72;;;17.54;49.15
6899;BME280;3488;42.616;23.350;2023-03-25T08:58:47;63811.78;;;17.55;49.74
6899;BME280;3488;42.616;23.350;2023-03-25T09:01:15;63779.00;;;17.25;49.81
6899;BME280;3488;42.616;23.350;2023-03-25T09:03:42;63750.88;;;16.96;50.70
6899;BME280;3488;42.616;23.350;2023-03-25T09:06:09;63721.75;;;16.70;50.72
6899;BME280;3488;42.616;23.350;2023-03-25T09:08:36;63713.94;;;16.63;51.19
6899;BME280;3488;42.616;23.350;2023-03-25T09:11:03;63712.34;;;16.59;51.20
6899;BME280;3488;42.616;23.350;2023-03-25T09:13:30;63712.41;;;16.64;50.96
6899;BME280;3488;42.616;23.350;2023-03-25T09:15:57;63723.31;;;16.72;51.22
6899;BME280;3488;42.616;23.350;2023-03-25T09:18:25;63724.34;;;16.70;50.43
6899;BME280;3488;42.616;23.350;2023-03-25T09:20:58;63731.63;;;16.80;51.28
6899;BME280;3488;42.616;23.350;2023-03-25T09:23:25;63749.88;;;17.00;50.37
6899;BME280;3488;42.616;23.350;2023-03-25T09:25:52;63782.13;;;17.28;48.26
6899;BME280;3488;42.616;23.350;2023-03-25T09:28:19;63807.63;;;17.51;49.21
6899;BME280;3488;42.616;23.350;2023-03-25T09:30:46;63814.91;;;17.58;48.10
6899;BME280;3488;42.616;23.350;2023-03-25T09:33:13;63813.88;;;17.57;48.52
6899;BME280;3488;42.616;23.350;2023-03-25T09:35:41;63804.03;;;17.52;48.56
6899;BME280;3488;42.616;23.350;2023-03-25T09:38:08;63788.84;;;17.32;48.79
6899;BME280;3488;42.616;23.350;2023-03-25T09:40:35;63763.94;;;17.13;48.86
6899;BME280;3488;42.616;23.350;2023-03-25T09:43:10;63786.28;;;17.32;48.86
6899;BME280;3488;42.616;23.350;2023-03-25T09:45:44;63823.78;;;17.69;48.24
6899;BME280;3488;42.616;23.350;2023-03-25T09:48:21;63839.41;;;17.84;47.82
6899;BME280;3488;42.616;23.350;2023-03-25T09:50:52;63857.16;;;18.06;47.80
6899;BME280;3488;42.616;23.350;2023-03-25T09:53:26;63885.22;;;18.25;46.47
6899;BME280;3488;42.616;23.350;2023-03-25T09:55:55;63887.34;;;18.32;47.75
6899;BME280;3488;42.616;23.350;2023-03-25T09:58:35;63901.44;;;18.46;46.45
6899;BME280;3488;42.616;23.350;2023-03-25T10:01:18;63927.38;;;18.61;44.38
6899;BME280;3488;42.616;23.350;2023-03-25T10:04:02;63949.34;;;18.90;45.44
6899;BME280;3488;42.616;23.350;2023-03-25T10:06:37;63947.28;;;18.90;44.17
6899;BME280;3488;42.616;23.350;2023-03-25T10:09:20;63945.19;;;18.86;45.33
6899;BME280;3488;42.616;23.350;2023-03-25T10:11:57;63902.94;;;18.42;45.22
6899;BME280;3488;42.616;23.350;2023-03-25T10:14:34;63885.22;;;18.25;46.33
6899;BME280;3488;42.616;23.350;2023-03-25T10:17:10;63873.25;;;18.16;46.05
6899;BME280;3488;42.616;23.350;2023-03-25T10:19:50;63857.13;;;18.01;46.09
6899;BME280;3488;42.616;23.350;2023-03-25T10:22:26;63867.00;;;18.10;47.13
6899;BME280;3488;42.616;23.350;2023-03-25T10:24:59;63890.97;;;18.33;46.60
6899;BME280;3488;42.616;23.350;2023-03-25T10:27:32;63946.16;;;18.82;45.20
6899;BME280;3488;42.616;23.350;2023-03-25T10:30:08;63956.09;;;18.94;44.07
6899;BME280;3488;42.616;23.350;2023-03-25T10:32:39;63946.16;;;18.79;43.97
6899;BME280;3488;42.616;23.350;2023-03-25T10:35:11;63952.44;;;18.90;43.52
6899;BME280;3488;42.616;23.350;2023-03-25T10:37:44;63965.50;;;19.05;43.43
6899;BME280;3488;42.616;23.350;2023-03-25T10:40:18;63988.41;;;19.25;43.02
6899;BME280;3488;42.616;23.350;2023-03-25T10:42:57;64008.25;;;19.44;42.21
6899;BME280;3488;42.616;23.350;2023-03-25T10:45:27;63992.59;;;19.29;41.16
6899;BME280;3488;42.616;23.350;2023-03-25T10:48:00;63988.94;;;19.25;40.93
6899;BME280;3488;42.616;23.350;2023-03-25T10:50:31;64010.84;;;19.44;41.28
6899;BME280;3488;42.616;23.350;2023-03-25T10:52:59;64009.81;;;19.43;41.66
6899;BME280;3488;42.616;23.350;2023-03-25T10:55:29;64021.84;;;19.60;41.61
6899;BME280;3488;42.616;23.350;2023-03-25T10:57:59;64030.16;;;19.68;40.65
6899;BME280;3488;42.616;23.350;2023-03-25T11:00:28;64024.44;;;19.62;40.00
6899;BME280;3488;42.616;23.350;2023-03-25T11:02:55;63993.66;;;19.30;39.97
6899;BME280;3488;42.616;23.350;2023-03-25T11:05:25;63991.06;;;19.30;40.74
6899;BME280;3488;42.616;23.350;2023-03-25T11:07:55;64031.22;;;19.69;40.85
6899;BME280;3488;42.616;23.350;2023-03-25T11:10:28;64026.50;;;19.62;39.83
6899;BME280;3488;42.616;23.350;2023-03-25T11:12:57;64023.38;;;19.59;40.12
6899;BME280;3488;42.616;23.350;2023-03-25T11:15:30;64018.19;;;19.56;39.70
6899;BME280;3488;42.616;23.350;2023-03-25T11:18:01;64006.19;;;19.44;39.97
6899;BME280;3488;42.616;23.350;2023-03-25T11:20:30;64009.28;;;19.42;39.45
6899;BME280;3488;42.616;23.350;2023-03-25T11:23:05;64015.53;;;19.48;40.01
6899;BME280;3488;42.616;23.350;2023-03-25T11:25:38;64009.84;;;19.48;39.17
6899;BME280;3488;42.616;23.350;2023-03-25T11:28:15;64027.56;;;19.65;39.23
6899;BME280;3488;42.616;23.350;2023-03-25T11:31:09;64053.13;;;19.90;39.47
6899;BME280;3488;42.616;23.350;2023-03-25T11:33:37;64083.38;;;20.16;40.37
6899;BME280;3488;42.616;23.350;2023-03-25T11:36:23;64069.25;;;20.00;40.74
6899;BME280;3488;42.616;23.350;2023-03-25T11:38:55;64041.66;;;19.79;41.69
6899;BME280;3488;42.616;23.350;2023-03-25T11:41:27;64029.13;;;19.67;40.85
6899;BME280;3488;42.616;23.350;2023-03-25T11:43:54;64033.81;;;19.71;41.18
6899;BME280;3488;42.616;23.350;2023-03-25T11:46:22;64047.88;;;19.82;40.59
6899;BME280;3488;42.616;23.350;2023-03-25T11:48:49;64065.59;;;19.97;40.72
6899;BME280;3488;42.616;23.350;2023-03-25T11:51:19;64067.22;;;20.06;39.93
6899;BME280;3488;42.616;23.350;2023-03-25T11:53:50;64097.44;;;20.27;38.80
6899;BME280;3488;42.616;23.350;2023-03-25T11:56:26;64128.81;;;20.65;38.91
6899;BME280;3488;42.616;23.350;2023-03-25T11:58:57;64143.91;;;20.72;38.34
6899;BME280;3488;42.616;23.350;2023-03-25T12:01:28;64164.78;;;20.95;38.39
6899;BME280;3488;42.616;23.350;2023-03-25T12:04:07;64134.53;;;20.65;38.50
6899;BME280;3488;42.616;23.350;2023-03-25T12:06:51;64174.22;;;21.06;37.40
6899;BME280;3488;42.616;23.350;2023-03-25T12:09:19;64194.03;;;21.20;36.92
6899;BME280;3488;42.616;23.350;2023-03-25T12:11:54;64216.53;;;21.47;37.00
6899;BME280;3488;42.616;23.350;2023-03-25T12:14:37;64242.66;;;21.74;35.82
6899;BME280;3488;42.616;23.350;2023-03-25T12:17:17;64272.44;;;21.98;34.98
6899;BME280;3488;42.616;23.350;2023-03-25T12:19:56;64267.72;;;21.94;34.70
6899;BME280;3488;42.616;23.350;2023-03-25T12:22:38;64201.34;;;21.30;35.22
6899;BME280;3488;42.616;23.350;2023-03-25T12:25:17;64171.06;;;20.98;36.11
6899;BME280;3488;42.616;23.350;2023-03-25T12:27:59;64183.06;;;21.10;36.23
6899;BME280;3488;42.616;23.350;2023-03-25T12:30:42;64194.59;;;21.26;35.84
6899;BME280;3488;42.616;23.350;2023-03-25T12:33:23;64202.91;;;21.29;35.25
6899;BME280;3488;42.616;23.350;2023-03-25T12:36:05;64174.19;;;21.04;35.49
6899;BME280;3488;42.616;23.350;2023-03-25T12:38:43;64183.09;;;21.15;35.85
6899;BME280;3488;42.616;23.350;2023-03-25T12:41:19;64120.44;;;20.54;36.83
6899;BME280;3488;42.616;23.350;2023-03-25T12:43:58;64095.88;;;20.26;37.96
6899;BME280;3488;42.616;23.350;2023-03-25T12:46:48;64046.88;;;19.84;38.28
6899;BME280;3488;42.616;23.350;2023-03-25T12:52:24;64038.50;;;19.73;37.66
6899;BME280;3488;42.616;23.350;2023-03-25T12:55:03;64074.00;;;20.10;36.97
6899;BME280;3488;42.616;23.350;2023-03-25T12:57:46;64066.16;;;20.00;37.60
6899;BME280;3488;42.616;23.350;2023-03-25T13:00:25;64081.25;;;20.12;36.56
6899;BME280;3488;42.616;23.350;2023-03-25T13:03:17;64083.91;;;20.17;37.38
6899;BME280;3488;42.616;23.350;2023-03-25T13:05:49;64055.69;;;19.87;38.20
6899;BME280;3488;42.616;23.350;2023-03-25T13:08:22;64049.44;;;19.84;37.22
6899;BME280;3488;42.616;23.350;2023-03-25T13:10:57;64036.97;;;19.74;37.81
6899;BME280;3488;42.616;23.350;2023-03-25T13:13:27;63995.19;;;19.29;38.09
6899;BME280;3488;42.616;23.350;2023-03-25T13:16:02;63998.25;;;19.29;38.49
6899;BME280;3488;42.616;23.350;2023-03-25T13:18:32;63976.44;;;19.13;38.72
6899;BME280;3488;42.616;23.350;2023-03-25T13:21:04;63971.22;;;19.11;39.38
6899;BME280;3488;42.616;23.350;2023-03-25T13:23:34;63970.69;;;19.08;39.81
6899;BME280;3488;42.616;23.350;2023-03-25T13:26:05;63979.53;;;19.14;39.78
6899;BME280;3488;42.616;23.350;2023-03-25T13:28:37;63937.88;;;18.79;39.07
6899;BME280;3488;42.616;23.350;2023-03-25T13:31:09;63922.75;;;18.62;39.75
6899;BME280;3488;42.616;23.350;2023-03-25T13:33:41;63932.19;;;18.76;40.46
6899;BME280;3488;42.616;23.350;2023-03-25T13:36:14;63930.03;;;18.69;40.14
6899;BME280;3488;42.616;23.350;2023-03-25T13:38:47;63923.81;;;18.65;40.26
6899;BME280;3488;42.616;23.350;2023-03-25T13:41:18;63929.47;;;18.66;40.72
6899;BME280;3488;42.616;23.350;2023-03-25T13:43:54;63922.75;;;18.62;41.96
6899;BME280;3488;42.616;23.350;2023-03-25T13:46:30;63913.84;;;18.48;43.24